Time;durP1;ratioP1;P1;durP2;ratioP2;P2;SDS_P1;SDS_P2;PMS_P1;PMS_P2;Temp;Humidity;BMP_temperature;BMP_pressure;BME280_temperature;BME280_humidity;BME280_pressure;Samples;Min_cycle;Max_cycle;Signal;HPM_P1;HPM_P2
2022/02/09 00:04:21;;;;;;;10.38;4.90;;;8.80;99.90;;;;;;5108820;28;20096;-73
2022/02/09 00:07:12;;;;;;;9.23;4.75;;;8.80;99.90;;;;;;5092707;28;20025;-72
2022/02/09 00:09:33;;;;;;;9.85;3.83;;;8.80;99.90;;;;;;5087099;28;20028;-71
2022/02/09 00:35:18;;;;;;;;;;;8.80;99.90;;;;;;5088365;28;20086;-73
2022/02/09 00:37:58;;;;;;;;;;;8.70;99.90;;;;;;5087945;28;19904;-73
2022/02/09 01:56:52;;;;;;;13.48;5.88;;;8.70;99.90;;;;;;5066054;28;19911;-75
2022/02/09 01:59:18;;;;;;;11.00;4.68;;;8.70;99.90;;;;;;5047952;28;20041;-75
2022/02/09 02:01:44;;;;;;;17.67;6.45;;;8.70;99.90;;;;;;5066338;28;20029;-74
2022/02/09 02:04:11;;;;;;;10.85;5.38;;;8.70;99.90;;;;;;5064756;28;20036;-74
2022/02/09 02:06:38;;;;;;;14.98;6.20;;;8.70;99.90;;;;;;5065743;28;20056;-72
2022/02/09 02:09:04;;;;;;;31.45;7.85;;;8.70;99.90;;;;;;5065689;28;20115;-73
2022/02/09 02:11:35;;;;;;;10.85;4.90;;;8.70;99.90;;;;;;5065512;28;20037;-73
2022/02/09 02:14:18;;;;;;;16.95;6.72;;;8.70;99.90;;;;;;5065894;28;20025;-73
2022/02/09 02:16:53;;;;;;;13.43;4.95;;;8.70;99.90;;;;;;5066341;28;20028;-75
2022/02/09 02:19:37;;;;;;;14.23;5.95;;;8.70;99.90;;;;;;5074281;28;20093;-72
2022/02/09 02:25:05;;;;;;;20.05;6.35;;;8.60;99.90;;;;;;5065553;28;20251;-73
2022/02/09 02:56:56;;;;;;;16.80;6.30;;;8.50;99.90;;;;;;5085157;28;20031;-76
2022/02/09 03:18:27;;;;;;;20.48;6.55;;;8.40;99.90;;;;;;5064284;28;20043;-75
2022/02/09 03:20:50;;;;;;;18.23;5.93;;;8.40;99.90;;;;;;5082904;28;20044;-71
2022/02/09 03:23:39;;;;;;;17.70;5.85;;;8.40;99.90;;;;;;5084922;28;20028;-74
2022/02/09 03:47:21;;;;;;;27.75;8.57;;;8.40;99.90;;;;;;5084191;28;20682;-72
2022/02/09 03:55:26;;;;;;;15.40;5.93;;;8.40;99.90;;;;;;5084395;28;20082;-72
2022/02/09 03:57:52;;;;;;;18.20;6.40;;;8.40;99.90;;;;;;5049759;28;20082;-72
2022/02/09 04:00:24;;;;;;;25.63;7.18;;;8.40;99.90;;;;;;5076136;28;20123;-75
2022/02/09 04:02:53;;;;;;;21.67;9.35;;;8.40;99.90;;;;;;5080648;28;20029;-72
2022/02/09 04:05:20;;;;;;;16.25;6.63;;;8.40;99.90;;;;;;5063767;28;20032;-73
2022/02/09 04:07:47;;;;;;;17.90;7.38;;;8.40;99.90;;;;;;5064082;28;20021;-72
2022/02/09 04:10:24;;;;;;;12.88;5.28;;;8.40;99.90;;;;;;5064549;28;20025;-72
2022/02/09 04:15:30;;;;;;;21.58;6.57;;;8.40;99.90;;;;;;5063917;28;20036;-73
2022/02/09 04:18:11;;;;;;;13.85;6.10;;;8.40;99.90;;;;;;5067126;28;20025;-74
2022/02/09 04:37:14;;;;;;;13.95;5.43;;;8.50;99.90;;;;;;5087634;28;20413;-75
2022/02/09 04:39:55;;;;;;;13.02;5.45;;;8.50;99.90;;;;;;5085152;28;20047;-73
2022/02/09 04:52:58;;;;;;;16.30;6.18;;;8.50;99.90;;;;;;5067786;28;20035;-75
2022/02/09 04:55:41;;;;;;;11.25;5.38;;;8.50;99.90;;;;;;5066825;28;20048;-73
2022/02/09 04:58:19;;;;;;;14.55;6.43;;;8.50;99.90;;;;;;5067223;28;20036;-72
2022/02/09 05:04:24;;;;;;;12.75;6.72;;;8.40;99.90;;;;;;4985882;28;20058;-73
2022/02/09 05:18:23;;;;;;;17.35;6.47;;;8.40;99.90;;;;;;5087222;28;20035;-72
2022/02/09 05:26:19;;;;;;;15.25;6.43;;;8.40;99.90;;;;;;5086679;28;20054;-72
2022/02/09 05:28:45;;;;;;;12.32;5.68;;;8.30;99.90;;;;;;5085774;28;20077;-72
2022/02/09 05:31:10;;;;;;;12.68;6.63;;;8.30;99.90;;;;;;5077079;28;20108;-74
2022/02/09 05:33:37;;;;;;;16.67;6.57;;;8.30;99.90;;;;;;5062247;28;20027;-73
2022/02/09 05:36:03;;;;;;;19.58;6.88;;;8.30;99.90;;;;;;5081799;28;20033;-73
2022/02/09 05:38:30;;;;;;;18.48;6.65;;;8.30;99.90;;;;;;5065984;28;20027;-74
2022/02/09 05:40:55;;;;;;;22.05;6.97;;;8.30;99.90;;;;;;5066420;28;20089;-73
2022/02/09 05:43:24;;;;;;;17.85;7.63;;;8.30;99.90;;;;;;5076758;28;20419;-74
2022/02/09 06:01:48;;;;;;;13.10;6.00;;;8.30;99.90;;;;;;5082315;28;20052;-73
2022/02/09 06:04:14;;;;;;;13.82;5.20;;;8.40;99.90;;;;;;5085672;28;20036;-73
2022/02/09 06:06:42;;;;;;;11.50;5.15;;;8.30;99.90;;;;;;5086224;28;20025;-73
2022/02/09 06:09:09;;;;;;;15.52;5.75;;;8.30;99.90;;;;;;5084601;28;20024;-72
2022/02/09 06:22:03;;;;;;;18.58;6.22;;;8.30;99.90;;;;;;5085386;28;20458;-73
2022/02/09 06:24:29;;;;;;;13.27;5.88;;;8.30;99.90;;;;;;5087267;28;20024;-73
2022/02/09 06:26:55;;;;;;;13.52;4.78;;;8.30;99.90;;;;;;5095641;28;20465;-73
2022/02/09 06:29:21;;;;;;;10.45;4.65;;;8.40;99.90;;;;;;5069451;28;20025;-73
2022/02/09 06:31:48;;;;;;;10.10;5.03;;;8.40;99.90;;;;;;5047841;28;20543;-72
2022/02/09 06:34:17;;;;;;;13.82;5.07;;;8.40;99.90;;;;;;5068635;28;20044;-74
2022/02/09 06:36:48;;;;;;;13.95;5.05;;;8.40;99.90;;;;;;5067573;28;20013;-73
2022/02/09 06:39:15;;;;;;;17.15;5.25;;;8.40;99.90;;;;;;5074010;28;20021;-71
2022/02/09 06:41:42;;;;;;;17.52;4.88;;;8.40;99.90;;;;;;5064070;28;20037;-72
2022/02/09 06:44:10;;;;;;;17.33;4.85;;;8.40;99.90;;;;;;5085301;28;20058;-71
2022/02/09 06:46:37;;;;;;;11.75;4.60;;;8.40;99.90;;;;;;5085022;28;20013;-70
2022/02/09 06:49:06;;;;;;;13.02;4.18;;;8.40;99.90;;;;;;5085189;28;20024;-72
2022/02/09 06:51:35;;;;;;;17.67;5.10;;;8.40;99.90;;;;;;5072404;28;20044;-70
2022/02/09 06:54:08;;;;;;;15.70;4.60;;;8.40;99.90;;;;;;5064554;28;20053;-71
2022/02/09 06:59:19;;;;;;;11.77;4.90;;;8.40;99.90;;;;;;5065189;28;20040;-73
2022/02/09 07:01:45;;;;;;;15.33;4.90;;;8.50;99.90;;;;;;5064591;28;20021;-71
2022/02/09 07:04:12;;;;;;;9.85;4.68;;;8.30;99.90;;;;;;5065104;28;20059;-72
2022/02/09 07:06:37;;;;;;;11.43;4.53;;;8.50;99.90;;;;;;5064535;28;20472;-72
2022/02/09 07:09:05;;;;;;;14.55;3.17;;;8.50;99.90;;;;;;5064863;28;20021;-69
2022/02/09 07:11:31;;;;;;;9.52;4.90;;;8.50;99.90;;;;;;5065008;28;20101;-74
2022/02/09 07:13:57;;;;;;;9.35;4.10;;;8.50;99.90;;;;;;5064721;28;20033;-75
2022/02/09 07:16:23;;;;;;;13.45;4.28;;;8.50;99.90;;;;;;5064285;28;20025;-73
2022/02/09 07:18:50;;;;;;;13.13;4.40;;;8.50;99.90;;;;;;5065315;28;20062;-73
2022/02/09 07:21:22;;;;;;;8.50;2.75;;;8.50;99.90;;;;;;5069886;28;20037;-74
2022/02/09 07:23:53;;;;;;;9.25;3.65;;;8.50;99.90;;;;;;5090631;28;20020;-71
2022/02/09 07:26:27;;;;;;;10.50;5.05;;;8.60;99.90;;;;;;5077503;28;20027;-72
2022/02/09 07:28:53;;;;;;;8.90;4.93;;;8.60;99.90;;;;;;5063580;28;20027;-71
2022/02/09 07:31:21;;;;;;;9.18;3.92;;;8.60;99.90;;;;;;5074840;28;20048;-72
2022/02/09 07:33:47;;;;;;;9.95;4.32;;;8.60;99.90;;;;;;5104638;28;20020;-72
2022/02/09 07:36:19;;;;;;;7.07;3.83;;;8.60;99.90;;;;;;5079378;28;20063;-73
2022/02/09 07:38:46;;;;;;;10.48;4.00;;;8.60;99.90;;;;;;5076215;28;20027;-73
2022/02/09 07:41:12;;;;;;;6.30;3.38;;;8.60;99.90;;;;;;5065394;28;20049;-70
2022/02/09 07:46:37;;;;;;;8.07;4.20;;;8.70;99.90;;;;;;5084139;28;20047;-73
2022/02/09 07:49:22;;;;;;;9.95;4.05;;;8.70;99.90;;;;;;5066271;28;20187;-72
2022/02/09 07:52:06;;;;;;;10.30;4.00;;;8.70;99.90;;;;;;5079265;28;20071;-72
2022/02/09 07:54:32;;;;;;;14.88;3.65;;;8.70;99.90;;;;;;5068202;28;20049;-73
2022/02/09 07:56:58;;;;;;;10.70;4.57;;;8.70;99.90;;;;;;5068331;28;20025;-71
2022/02/09 07:59:26;;;;;;;11.25;4.63;;;8.70;99.90;;;;;;5068515;28;20104;-71
2022/02/09 08:01:52;;;;;;;11.13;4.80;;;8.70;99.90;;;;;;5080949;28;20092;-71
2022/02/09 08:04:18;;;;;;;11.02;4.78;;;8.80;99.90;;;;;;5088071;28;20024;-72
2022/02/09 08:06:46;;;;;;;9.07;4.45;;;8.80;99.90;;;;;;5069886;28;20029;-73
2022/02/09 08:09:23;;;;;;;9.73;4.63;;;8.80;99.90;;;;;;5055907;28;20100;-73
2022/02/09 08:20:34;;;;;;;12.38;4.93;;;8.90;99.90;;;;;;5079301;28;20072;-73
2022/02/09 08:30:58;;;;;;;9.38;4.65;;;9.00;99.90;;;;;;5076917;28;20035;-74
2022/02/09 08:33:24;;;;;;;14.23;5.43;;;9.10;99.90;;;;;;5067769;28;20060;-72
2022/02/09 08:35:52;;;;;;;11.45;5.03;;;9.10;99.90;;;;;;5066098;28;20017;-73
2022/02/09 08:38:18;;;;;;;15.30;5.65;;;9.10;99.90;;;;;;5065904;28;20082;-73
2022/02/09 08:40:46;;;;;;;8.55;3.97;;;9.30;99.90;;;;;;5051956;28;20032;-72
2022/02/09 08:43:13;;;;;;;11.18;5.10;;;9.30;99.90;;;;;;5070917;28;20033;-72
2022/02/09 08:45:41;;;;;;;12.73;4.90;;;9.40;99.90;;;;;;5092509;28;20035;-73
2022/02/09 08:48:07;;;;;;;10.18;5.05;;;9.50;99.90;;;;;;5058988;28;20025;-71
2022/02/09 08:50:33;;;;;;;9.25;3.88;;;9.70;99.90;;;;;;5085363;28;20072;-73
2022/02/09 08:52:59;;;;;;;11.52;4.53;;;9.80;99.90;;;;;;5081773;28;20089;-72
2022/02/09 08:55:25;;;;;;;10.63;4.07;;;9.90;99.90;;;;;;5075612;28;20041;-75
2022/02/09 08:57:51;;;;;;;10.27;4.18;;;9.90;99.90;;;;;;5065627;28;20108;-72
2022/02/09 09:00:31;;;;;;;8.30;4.50;;;9.90;99.90;;;;;;5065115;28;20067;-72
2022/02/09 09:05:50;;;;;;;7.05;3.88;;;9.80;99.90;;;;;;5085167;28;20036;-71
2022/02/09 09:17:13;;;;;;;9.07;4.07;;;9.80;99.90;;;;;;5065006;28;20036;-74
2022/02/09 09:58:17;;;;;;;6.18;3.00;;;10.10;99.90;;;;;;5064820;28;20083;-72
2022/02/09 10:01:18;;;;;;;4.63;2.55;;;10.20;99.90;;;;;;5080866;28;20144;-71
2022/02/09 10:33:57;;;;;;;6.70;2.50;;;10.10;99.90;;;;;;5082990;28;20039;-74
2022/02/09 10:36:23;;;;;;;;;;;10.10;99.90;;;;;;5083431;28;20037;-74
2022/02/09 10:39:01;;;;;;;7.18;3.63;;;10.10;99.90;;;;;;5059308;28;19905;-73
2022/02/09 10:41:28;;;;;;;8.43;3.55;;;10.10;99.90;;;;;;5075421;28;20040;-70
2022/02/09 10:44:04;;;;;;;6.40;2.88;;;10.20;99.90;;;;;;5082580;28;20028;-74
2022/02/09 10:47:17;;;;;;;6.78;3.17;;;10.20;99.90;;;;;;5064668;28;20092;-73
2022/02/09 10:50:06;;;;;;;9.88;3.05;;;10.40;99.90;;;;;;5002876;28;20041;-74
2022/02/09 10:52:46;;;;;;;9.55;3.75;;;10.50;99.90;;;;;;5054865;28;20111;-73
2022/02/09 10:55:27;;;;;;;6.93;3.05;;;10.50;99.90;;;;;;5045503;28;20535;-73
2022/02/09 10:57:54;;;;;;;5.60;2.63;;;10.60;99.90;;;;;;5063149;28;20089;-73
2022/02/09 11:00:20;;;;;;;7.38;3.45;;;10.40;99.90;;;;;;5072318;28;20090;-74
2022/02/09 11:02:50;;;;;;;9.75;2.95;;;10.40;99.90;;;;;;5063063;28;20055;-71
2022/02/09 11:05:20;;;;;;;4.65;2.10;;;10.40;99.90;;;;;;5083546;28;20038;-70
2022/02/09 11:07:48;;;;;;;6.63;2.65;;;10.30;99.90;;;;;;5083704;28;20016;-73
2022/02/09 11:10:14;;;;;;;7.25;3.20;;;10.20;99.90;;;;;;5067600;28;20020;-73
2022/02/09 11:12:43;;;;;;;7.65;3.45;;;10.30;99.90;;;;;;5071451;28;20048;-72
2022/02/09 11:15:13;;;;;;;6.05;3.05;;;10.20;99.90;;;;;;5103668;28;20077;-72
2022/02/09 11:17:46;;;;;;;7.10;3.20;;;10.10;99.90;;;;;;5084306;28;20021;-73
2022/02/09 11:20:29;;;;;;;10.55;3.55;;;10.10;99.90;;;;;;5084079;28;20047;-74
2022/02/09 11:22:56;;;;;;;7.93;3.83;;;10.10;99.90;;;;;;5083976;28;20020;-72
2022/02/09 11:25:34;;;;;;;11.07;3.50;;;10.00;99.90;;;;;;5083892;28;20028;-73
2022/02/09 11:28:33;;;;;;;6.63;3.17;;;9.90;99.90;;;;;;5083869;28;20020;-71
2022/02/09 11:31:14;;;;;;;6.18;2.92;;;9.80;99.90;;;;;;5077875;28;20029;-73
2022/02/09 11:33:56;;;;;;;9.32;3.83;;;9.80;99.90;;;;;;5065536;28;20370;-72
2022/02/09 11:36:42;;;;;;;7.95;3.30;;;9.70;99.90;;;;;;5084029;28;20107;-72
2022/02/09 11:39:19;;;;;;;10.13;4.97;;;9.70;99.90;;;;;;5069534;28;20051;-74
2022/02/09 11:42:10;;;;;;;6.28;3.47;;;9.70;99.90;;;;;;5073031;28;20054;-74
2022/02/09 11:44:57;;;;;;;5.82;2.92;;;9.70;99.90;;;;;;5079843;28;20051;-74
2022/02/09 11:48:06;;;;;;;8.90;3.90;;;9.70;99.90;;;;;;5076758;28;20031;-74
2022/02/09 11:58:42;;;;;;;10.20;4.15;;;9.80;99.90;;;;;;5079058;28;20035;-72
2022/02/09 12:12:02;;;;;;;6.78;3.08;;;9.50;99.90;;;;;;5083824;28;20089;-73
2022/02/09 12:14:55;;;;;;;5.25;3.13;;;9.50;99.90;;;;;;5068600;28;20025;-72
2022/02/09 12:20:18;;;;;;;7.43;2.80;;;9.50;99.90;;;;;;5080286;28;20036;-73
2022/02/09 12:22:50;;;;;;;6.13;3.15;;;9.40;99.90;;;;;;5070025;28;20021;-72
2022/02/09 12:25:16;;;;;;;7.70;3.55;;;9.40;99.90;;;;;;5065562;28;20024;-73
2022/02/09 12:27:50;;;;;;;5.65;2.67;;;9.40;99.90;;;;;;5079511;28;20973;-75
2022/02/09 12:30:21;;;;;;;7.60;2.83;;;9.40;99.90;;;;;;5078637;28;20029;-74
2022/02/09 12:32:46;;;;;;;5.32;2.95;;;9.40;99.90;;;;;;5064331;28;20037;-73
2022/02/09 12:35:15;;;;;;;6.45;2.95;;;9.30;99.90;;;;;;5075721;28;20307;-71
2022/02/09 12:37:45;;;;;;;5.38;2.78;;;9.30;99.90;;;;;;5063536;28;20021;-71
2022/02/09 12:40:17;;;;;;;7.05;3.03;;;9.30;99.90;;;;;;5067419;28;20036;-74
2022/02/09 12:42:49;;;;;;;6.07;3.03;;;9.20;99.90;;;;;;5067135;28;20037;-72
2022/02/09 12:45:19;;;;;;;10.27;4.13;;;9.10;99.90;;;;;;5049012;28;20093;-71
2022/02/09 12:47:49;;;;;;;9.45;4.60;;;9.20;99.90;;;;;;5087020;28;20487;-75
2022/02/09 12:50:34;;;;;;;8.10;4.28;;;9.10;99.90;;;;;;5086893;28;20492;-74
2022/02/09 12:53:02;;;;;;;;;;;9.10;99.90;;;;;;5087369;28;20044;-73
2022/02/09 12:55:33;;;;;;;6.22;3.30;;;9.10;99.90;;;;;;5085169;28;19916;-75
2022/02/09 12:58:04;;;;;;;9.38;3.83;;;9.00;99.90;;;;;;5068184;28;20048;-73
2022/02/09 13:00:33;;;;;;;5.03;3.05;;;9.00;99.90;;;;;;5086339;28;20107;-72
2022/02/09 13:03:02;;;;;;;7.97;3.65;;;9.00;99.90;;;;;;5085238;28;20032;-74
2022/02/09 13:05:29;;;;;;;6.43;3.05;;;9.00;99.90;;;;;;5086554;28;20033;-73
2022/02/09 13:07:57;;;;;;;7.78;3.58;;;9.00;99.90;;;;;;5086765;28;20103;-74
2022/02/09 13:10:26;;;;;;;6.20;3.00;;;8.90;99.90;;;;;;5087096;28;20025;-75
2022/02/09 13:12:53;;;;;;;8.65;4.38;;;8.90;99.90;;;;;;5088052;28;20031;-74
2022/02/09 13:15:25;;;;;;;7.07;3.60;;;9.00;99.90;;;;;;5106010;28;20032;-73
2022/02/09 14:11:24;;;;;;;9.20;4.57;;;9.10;99.90;;;;;;5070889;28;20443;-74
2022/02/09 14:57:36;;;;;;;5.32;3.00;;;9.00;99.90;;;;;;5094975;28;20046;-73
2022/02/09 15:00:14;;;;;;;7.70;3.63;;;9.00;99.90;;;;;;5096584;28;20040;-72
2022/02/09 15:13:02;;;;;;;8.65;4.72;;;8.90;99.90;;;;;;5076259;28;20055;-74
2022/02/09 15:15:48;;;;;;;9.52;4.07;;;8.90;99.90;;;;;;5083329;28;20031;-72
2022/02/09 15:18:48;;;;;;;6.85;3.20;;;8.90;99.90;;;;;;5076681;28;20021;-71
2022/02/09 15:21:23;;;;;;;5.68;2.67;;;8.90;99.90;;;;;;5063476;28;20040;-73
2022/02/09 15:23:51;;;;;;;8.23;3.88;;;8.90;99.90;;;;;;5062142;28;20021;-73
2022/02/09 15:26:20;;;;;;;6.32;3.13;;;8.90;99.90;;;;;;5065490;28;20040;-74
2022/02/09 15:28:45;;;;;;;11.60;3.30;;;8.90;99.90;;;;;;5071878;28;20017;-73
2022/02/09 15:31:29;;;;;;;6.15;2.85;;;8.90;99.90;;;;;;5058626;28;20035;-73
2022/02/09 15:34:10;;;;;;;6.50;3.05;;;8.80;99.90;;;;;;5059739;28;20032;-72
2022/02/09 15:36:59;;;;;;;6.25;2.88;;;8.80;99.90;;;;;;5092620;28;20020;-74
2022/02/09 15:39:25;;;;;;;6.28;2.80;;;8.80;99.90;;;;;;5071425;28;20043;-73
2022/02/09 15:42:56;;;;;;;5.88;3.47;;;8.80;99.90;;;;;;5084404;28;20058;-73
2022/02/09 16:07:26;;;;;;;5.72;2.85;;;8.80;99.90;;;;;;5064407;28;20036;-74
2022/02/09 16:22:51;;;;;;;11.65;3.88;;;8.80;99.90;;;;;;5074511;28;20095;-74
2022/02/09 16:25:36;;;;;;;9.77;3.53;;;8.80;99.90;;;;;;5070045;28;20028;-75
2022/02/09 16:46:32;;;;;;;4.20;2.22;;;8.70;99.90;;;;;;5086446;28;20058;-75
2022/02/09 16:51:26;;;;;;;7.32;2.72;;;8.70;99.90;;;;;;5078994;28;20025;-76
2022/02/09 16:54:06;;;;;;;5.15;3.03;;;8.70;99.90;;;;;;5048127;28;20111;-74
2022/02/09 17:21:15;;;;;;;9.20;2.90;;;8.40;99.90;;;;;;5089660;28;20040;-73
2022/02/09 17:23:42;;;;;;;8.82;4.15;;;8.50;99.90;;;;;;5068794;28;20033;-73
2022/02/09 17:26:12;;;;;;;10.15;3.90;;;8.40;99.90;;;;;;5086286;28;20442;-72
2022/02/09 17:28:39;;;;;;;7.97;3.25;;;8.50;99.90;;;;;;5085361;28;20024;-74
2022/02/09 17:31:17;;;;;;;8.90;3.15;;;8.40;99.90;;;;;;5083855;28;20025;-71
2022/02/09 17:34:00;;;;;;;9.50;3.63;;;8.40;99.90;;;;;;5048597;28;20028;-73
2022/02/09 17:57:53;;;;;;;6.07;2.60;;;8.30;99.90;;;;;;5086962;28;20029;-73
2022/02/09 18:00:19;;;;;;;13.93;2.78;;;8.20;99.90;;;;;;5087788;28;20036;-74
2022/02/09 18:02:50;;;;;;;10.38;2.60;;;8.20;99.90;;;;;;5085272;28;20021;-74
2022/02/09 18:05:46;;;;;;;9.07;3.00;;;8.20;99.90;;;;;;5104099;28;20035;-74
2022/02/09 18:08:22;;;;;;;6.65;2.95;;;8.20;99.90;;;;;;5082224;28;20075;-76
2022/02/09 18:32:50;;;;;;;5.95;3.38;;;8.10;99.90;;;;;;5092541;28;20123;-74
2022/02/09 18:45:54;;;;;;;14.52;4.53;;;8.10;99.90;;;;;;5083891;28;20040;-72
2022/02/09 19:04:46;;;;;;;11.15;4.95;;;8.20;99.90;;;;;;5078475;28;20675;-75
2022/02/09 19:07:35;;;;;;;19.75;5.18;;;8.20;99.90;;;;;;5046970;28;20021;-75
2022/02/09 19:16:00;;;;;;;16.60;5.03;;;8.10;99.90;;;;;;5072311;28;20086;-75
2022/02/09 19:48:09;;;;;;;12.88;4.65;;;8.00;99.90;;;;;;5071132;28;20047;-75
2022/02/09 19:55:57;;;;;;;15.95;4.53;;;8.00;99.90;;;;;;5108225;28;20110;-74
2022/02/09 19:58:30;;;;;;;15.52;5.20;;;8.00;99.90;;;;;;5093205;28;20025;-76
2022/02/09 20:00:58;;;;;;;15.38;4.93;;;8.00;99.90;;;;;;5089533;28;20129;-74
2022/02/09 20:03:23;;;;;;;11.75;5.35;;;8.00;99.90;;;;;;5089938;28;20032;-75
2022/02/09 20:05:50;;;;;;;14.85;6.20;;;8.00;99.90;;;;;;5090074;28;20050;-75
2022/02/09 20:08:17;;;;;;;12.73;6.78;;;8.00;99.90;;;;;;5075952;28;20037;-76
2022/02/09 20:10:43;;;;;;;13.57;5.40;;;8.00;99.90;;;;;;5071517;28;20081;-76
2022/02/09 20:13:09;;;;;;;12.98;5.47;;;8.00;99.90;;;;;;5085553;28;20035;-74
2022/02/09 20:15:34;;;;;;;9.65;4.97;;;8.00;99.90;;;;;;5107810;28;20032;-74
2022/02/09 20:18:00;;;;;;;15.88;5.55;;;8.00;99.90;;;;;;5087107;28;20027;-75
2022/02/09 20:20:30;;;;;;;18.67;5.13;;;8.00;99.90;;;;;;5089688;28;20028;-74
2022/02/09 20:22:58;;;;;;;28.83;6.97;;;8.00;99.90;;;;;;5075668;28;20029;-74
2022/02/09 20:25:25;;;;;;;15.65;5.13;;;8.10;99.90;;;;;;5086842;28;20020;-75
2022/02/09 20:27:53;;;;;;;11.00;4.82;;;8.10;99.90;;;;;;5069177;28;20021;-74
2022/02/09 20:30:24;;;;;;;15.93;4.57;;;8.10;99.90;;;;;;5087509;28;20040;-75
2022/02/09 20:33:00;;;;;;;13.30;5.80;;;8.10;99.90;;;;;;5077900;28;20045;-77
2022/02/09 20:35:26;;;;;;;19.95;7.55;;;8.10;99.90;;;;;;5078646;28;20029;-75
2022/02/09 20:37:54;;;;;;;15.95;5.53;;;8.10;99.90;;;;;;5060877;28;20517;-76
2022/02/09 20:40:26;;;;;;;13.60;5.78;;;8.10;99.90;;;;;;5049546;28;20035;-75
2022/02/09 20:42:56;;;;;;;12.15;6.38;;;8.10;99.90;;;;;;5066037;28;20029;-75
2022/02/09 20:45:29;;;;;;;11.52;5.93;;;8.10;99.90;;;;;;5065479;28;20029;-75
2022/02/09 20:48:05;;;;;;;19.83;5.93;;;8.10;99.90;;;;;;5078700;28;20027;-74
2022/02/09 20:50:32;;;;;;;16.15;6.50;;;8.10;99.90;;;;;;5088421;28;20066;-75
2022/02/09 20:52:58;;;;;;;31.63;5.63;;;8.10;99.90;;;;;;5086894;28;20024;-77
2022/02/09 20:55:26;;;;;;;22.00;6.05;;;8.00;99.90;;;;;;5088631;28;20056;-73
2022/02/09 20:57:53;;;;;;;15.20;5.05;;;8.00;99.90;;;;;;5103522;28;20031;-74
2022/02/09 21:16:16;;;;;;;17.50;5.55;;;7.70;99.90;;;;;;5066510;28;20032;-74
2022/02/09 21:19:11;;;;;;;22.13;5.15;;;7.60;99.90;;;;;;5066851;28;20017;-72
2022/02/09 21:33:14;;;;;;;;;;;7.40;99.90;;;;;;5086721;28;20081;-74
2022/02/09 21:52:16;;;;;;;22.63;6.00;;;7.40;99.90;;;;;;5078211;28;20078;-72
2022/02/09 21:54:52;;;;;;;17.52;6.25;;;7.40;99.90;;;;;;5074862;28;20052;-70
2022/02/09 21:57:32;;;;;;;17.02;7.28;;;7.40;99.90;;;;;;5075047;28;20036;-74
2022/02/09 22:56:33;;;;;;;13.25;7.22;;;7.70;99.90;;;;;;5073938;28;20059;-72
2022/02/09 22:59:01;;;;;;;18.88;6.22;;;7.60;99.90;;;;;;5044162;28;20025;-72
2022/02/09 23:01:44;;;;;;;28.02;11.40;;;7.70;99.90;;;;;;5080859;28;20028;-74
2022/02/09 23:06:46;;;;;;;14.73;5.80;;;7.70;99.90;;;;;;5068098;28;20504;-73
